sensor_id;sensor_type;location;lat;lon;timestamp;P1;durP1;ratioP1;P2;durP2;ratioP2
61709;SDS011;47633;51.494;5.386;2023-03-01T00:01:03;6.05;;;3.50;;
61709;SDS011;47633;51.494;5.386;2023-03-01T00:03:30;6.88;;;2.90;;
61709;SDS011;47633;51.494;5.386;2023-03-01T00:05:57;6.05;;;3.28;;
61709;SDS011;47633;51.494;5.386;2023-03-01T00:08:23;8.18;;;3.22;;
61709;SDS011;47633;51.494;5.386;2023-03-01T00:10:48;7.30;;;3.30;;
61709;SDS011;47633;51.494;5.386;2023-03-01T00:13:14;5.10;;;2.85;;
61709;SDS011;47633;51.494;5.386;2023-03-01T00:15:39;6.28;;;2.85;;
61709;SDS011;47633;51.494;5.386;2023-03-01T00:18:06;5.22;;;2.97;;
61709;SDS011;47633;51.494;5.386;2023-03-01T00:20:33;5.40;;;2.90;;
61709;SDS011;47633;51.494;5.386;2023-03-01T00:22:58;5.00;;;2.67;;
61709;SDS011;47633;51.494;5.386;2023-03-01T00:25:24;6.18;;;3.08;;
61709;SDS011;47633;51.494;5.386;2023-03-01T00:27:49;7.23;;;3.10;;
61709;SDS011;47633;51.494;5.386;2023-03-01T00:30:14;6.55;;;3.10;;
61709;SDS011;47633;51.494;5.386;2023-03-01T00:32:40;6.28;;;3.38;;
61709;SDS011;47633;51.494;5.386;2023-03-01T00:35:05;5.22;;;2.70;;
61709;SDS011;47633;51.494;5.386;2023-03-01T00:37:31;5.57;;;2.80;;
61709;SDS011;47633;51.494;5.386;2023-03-01T00:39:56;5.68;;;3.25;;
61709;SDS011;47633;51.494;5.386;2023-03-01T00:42:21;5.32;;;2.88;;
61709;SDS011;47633;51.494;5.386;2023-03-01T00:44:47;6.20;;;3.17;;
61709;SDS011;47633;51.494;5.386;2023-03-01T00:47:12;4.95;;;2.90;;
61709;SDS011;47633;51.494;5.386;2023-03-01T00:49:38;6.00;;;3.10;;
61709;SDS011;47633;51.494;5.386;2023-03-01T00:52:04;5.47;;;2.75;;
61709;SDS011;47633;51.494;5.386;2023-03-01T00:54:29;6.35;;;3.03;;
61709;SDS011;47633;51.494;5.386;2023-03-01T00:56:54;4.78;;;2.70;;
61709;SDS011;47633;51.494;5.386;2023-03-01T00:59:20;5.85;;;3.08;;
61709;SDS011;47633;51.494;5.386;2023-03-01T01:01:45;6.32;;;3.00;;
61709;SDS011;47633;51.494;5.386;2023-03-01T01:04:11;4.50;;;2.45;;
61709;SDS011;47633;51.494;5.386;2023-03-01T01:06:39;6.03;;;3.00;;
61709;SDS011;47633;51.494;5.386;2023-03-01T01:09:07;5.55;;;3.25;;
61709;SDS011;47633;51.494;5.386;2023-03-01T01:11:34;4.97;;;3.10;;
61709;SDS011;47633;51.494;5.386;2023-03-01T01:14:01;5.80;;;3.17;;
61709;SDS011;47633;51.494;5.386;2023-03-01T01:16:28;5.55;;;2.90;;
61709;SDS011;47633;51.494;5.386;2023-03-01T01:18:55;4.72;;;2.78;;
61709;SDS011;47633;51.494;5.386;2023-03-01T01:21:22;6.07;;;3.42;;
61709;SDS011;47633;51.494;5.386;2023-03-01T01:23:48;5.90;;;2.72;;
61709;SDS011;47633;51.494;5.386;2023-03-01T01:26:24;5.30;;;3.03;;
61709;SDS011;47633;51.494;5.386;2023-03-01T01:28:51;5.03;;;2.92;;
61709;SDS011;47633;51.494;5.386;2023-03-01T01:31:17;5.80;;;3.05;;
61709;SDS011;47633;51.494;5.386;2023-03-01T01:33:43;6.30;;;2.97;;
61709;SDS011;47633;51.494;5.386;2023-03-01T01:36:09;4.60;;;2.80;;
61709;SDS011;47633;51.494;5.386;2023-03-01T01:38:35;5.07;;;2.90;;
61709;SDS011;47633;51.494;5.386;2023-03-01T01:41:02;6.07;;;3.00;;
61709;SDS011;47633;51.494;5.386;2023-03-01T01:43:29;6.50;;;3.42;;
61709;SDS011;47633;51.494;5.386;2023-03-01T01:46:01;5.97;;;3.03;;
61709;SDS011;47633;51.494;5.386;2023-03-01T01:48:45;5.25;;;3.00;;
61709;SDS011;47633;51.494;5.386;2023-03-01T01:51:14;5.47;;;2.95;;
61709;SDS011;47633;51.494;5.386;2023-03-01T01:53:45;5.10;;;2.88;;
61709;SDS011;47633;51.494;5.386;2023-03-01T01:56:14;5.45;;;3.00;;
61709;SDS011;47633;51.494;5.386;2023-03-01T01:58:41;6.60;;;3.03;;
61709;SDS011;47633;51.494;5.386;2023-03-01T02:01:08;5.50;;;2.90;;
61709;SDS011;47633;51.494;5.386;2023-03-01T02:03:34;5.63;;;2.65;;
61709;SDS011;47633;51.494;5.386;2023-03-01T02:06:12;6.53;;;3.13;;
61709;SDS011;47633;51.494;5.386;2023-03-01T02:08:43;6.40;;;3.05;;
61709;SDS011;47633;51.494;5.386;2023-03-01T02:11:10;5.43;;;2.95;;
61709;SDS011;47633;51.494;5.386;2023-03-01T02:13:39;5.85;;;2.80;;
61709;SDS011;47633;51.494;5.386;2023-03-01T02:16:08;5.50;;;2.63;;
61709;SDS011;47633;51.494;5.386;2023-03-01T02:18:35;5.55;;;2.97;;
61709;SDS011;47633;51.494;5.386;2023-03-01T02:21:14;6.32;;;3.28;;
61709;SDS011;47633;51.494;5.386;2023-03-01T02:23:48;7.10;;;3.08;;
61709;SDS011;47633;51.494;5.386;2023-03-01T02:29:16;5.45;;;2.95;;
61709;SDS011;47633;51.494;5.386;2023-03-01T02:31:42;5.55;;;2.90;;
61709;SDS011;47633;51.494;5.386;2023-03-01T02:34:12;5.63;;;2.70;;
61709;SDS011;47633;51.494;5.386;2023-03-01T02:36:53;5.47;;;3.08;;
61709;SDS011;47633;51.494;5.386;2023-03-01T02:39:24;6.97;;;3.15;;
61709;SDS011;47633;51.494;5.386;2023-03-01T02:41:54;5.35;;;2.88;;
61709;SDS011;47633;51.494;5.386;2023-03-01T02:44:21;5.40;;;2.88;;
61709;SDS011;47633;51.494;5.386;2023-03-01T02:46:50;6.20;;;3.08;;
61709;SDS011;47633;51.494;5.386;2023-03-01T02:49:22;5.88;;;2.90;;
61709;SDS011;47633;51.494;5.386;2023-03-01T02:55:10;4.85;;;2.80;;
61709;SDS011;47633;51.494;5.386;2023-03-01T02:57:38;4.75;;;2.92;;
61709;SDS011;47633;51.494;5.386;2023-03-01T03:00:07;7.07;;;3.05;;
61709;SDS011;47633;51.494;5.386;2023-03-01T03:02:44;5.53;;;3.28;;
61709;SDS011;47633;51.494;5.386;2023-03-01T03:05:14;4.70;;;2.92;;
61709;SDS011;47633;51.494;5.386;2023-03-01T03:07:43;6.15;;;2.95;;
61709;SDS011;47633;51.494;5.386;2023-03-01T03:10:12;5.80;;;3.03;;
61709;SDS011;47633;51.494;5.386;2023-03-01T03:12:44;5.78;;;2.65;;
61709;SDS011;47633;51.494;5.386;2023-03-01T03:15:14;5.50;;;2.92;;
61709;SDS011;47633;51.494;5.386;2023-03-01T03:17:40;4.95;;;2.85;;
61709;SDS011;47633;51.494;5.386;2023-03-01T03:20:07;4.80;;;2.88;;
61709;SDS011;47633;51.494;5.386;2023-03-01T03:22:36;5.75;;;2.92;;
61709;SDS011;47633;51.494;5.386;2023-03-01T03:25:04;5.40;;;2.72;;
61709;SDS011;47633;51.494;5.386;2023-03-01T03:27:30;6.03;;;2.72;;
61709;SDS011;47633;51.494;5.386;2023-03-01T03:29:56;4.93;;;2.88;;
61709;SDS011;47633;51.494;5.386;2023-03-01T03:32:22;5.57;;;2.65;;
61709;SDS011;47633;51.494;5.386;2023-03-01T03:34:47;5.38;;;2.90;;
61709;SDS011;47633;51.494;5.386;2023-03-01T03:37:13;5.60;;;2.92;;
61709;SDS011;47633;51.494;5.386;2023-03-01T03:39:58;4.72;;;2.63;;
61709;SDS011;47633;51.494;5.386;2023-03-01T03:42:23;5.93;;;3.05;;
61709;SDS011;47633;51.494;5.386;2023-03-01T03:44:49;4.85;;;2.47;;
61709;SDS011;47633;51.494;5.386;2023-03-01T03:47:14;4.50;;;2.58;;
61709;SDS011;47633;51.494;5.386;2023-03-01T03:49:39;5.10;;;2.80;;
61709;SDS011;47633;51.494;5.386;2023-03-01T03:52:04;6.20;;;2.92;;
61709;SDS011;47633;51.494;5.386;2023-03-01T03:54:38;5.57;;;3.17;;
61709;SDS011;47633;51.494;5.386;2023-03-01T03:57:04;5.38;;;3.05;;
61709;SDS011;47633;51.494;5.386;2023-03-01T03:59:29;4.45;;;2.70;;
61709;SDS011;47633;51.494;5.386;2023-03-01T04:01:55;4.95;;;2.78;;
61709;SDS011;47633;51.494;5.386;2023-03-01T04:04:20;5.28;;;2.60;;
61709;SDS011;47633;51.494;5.386;2023-03-01T04:06:45;4.78;;;2.58;;
61709;SDS011;47633;51.494;5.386;2023-03-01T04:09:11;5.55;;;2.70;;
61709;SDS011;47633;51.494;5.386;2023-03-01T04:11:36;5.28;;;2.35;;
61709;SDS011;47633;51.494;5.386;2023-03-01T04:14:03;4.85;;;2.50;;
61709;SDS011;47633;51.494;5.386;2023-03-01T04:16:29;5.70;;;2.60;;
61709;SDS011;47633;51.494;5.386;2023-03-01T04:18:54;6.00;;;2.55;;
61709;SDS011;47633;51.494;5.386;2023-03-01T04:21:20;4.82;;;2.30;;
61709;SDS011;47633;51.494;5.386;2023-03-01T04:23:46;5.68;;;2.50;;
61709;SDS011;47633;51.494;5.386;2023-03-01T04:26:11;5.13;;;2.65;;
61709;SDS011;47633;51.494;5.386;2023-03-01T04:28:37;5.65;;;2.80;;
61709;SDS011;47633;51.494;5.386;2023-03-01T04:31:12;5.57;;;2.65;;
61709;SDS011;47633;51.494;5.386;2023-03-01T04:33:51;5.20;;;2.40;;
61709;SDS011;47633;51.494;5.386;2023-03-01T04:36:19;6.97;;;2.72;;
61709;SDS011;47633;51.494;5.386;2023-03-01T04:38:47;6.32;;;2.47;;
61709;SDS011;47633;51.494;5.386;2023-03-01T04:41:13;5.15;;;2.47;;
61709;SDS011;47633;51.494;5.386;2023-03-01T04:43:40;5.97;;;2.47;;
61709;SDS011;47633;51.494;5.386;2023-03-01T04:46:09;4.80;;;2.50;;
61709;SDS011;47633;51.494;5.386;2023-03-01T04:48:37;5.78;;;2.50;;
61709;SDS011;47633;51.494;5.386;2023-03-01T04:51:04;6.03;;;2.55;;
61709;SDS011;47633;51.494;5.386;2023-03-01T04:53:31;4.97;;;2.40;;
61709;SDS011;47633;51.494;5.386;2023-03-01T04:55:57;4.18;;;2.30;;
61709;SDS011;47633;51.494;5.386;2023-03-01T04:58:23;5.38;;;2.42;;
61709;SDS011;47633;51.494;5.386;2023-03-01T05:00:50;5.55;;;2.60;;
61709;SDS011;47633;51.494;5.386;2023-03-01T05:03:15;5.05;;;2.30;;
61709;SDS011;47633;51.494;5.386;2023-03-01T05:05:43;5.25;;;2.40;;
61709;SDS011;47633;51.494;5.386;2023-03-01T05:08:09;4.53;;;2.40;;
61709;SDS011;47633;51.494;5.386;2023-03-01T05:10:42;5.25;;;2.40;;
61709;SDS011;47633;51.494;5.386;2023-03-01T05:13:07;5.10;;;2.45;;
61709;SDS011;47633;51.494;5.386;2023-03-01T05:15:33;6.30;;;2.73;;
61709;SDS011;47633;51.494;5.386;2023-03-01T05:17:58;5.00;;;2.40;;
61709;SDS011;47633;51.494;5.386;2023-03-01T05:20:28;4.53;;;2.20;;
61709;SDS011;47633;51.494;5.386;2023-03-01T05:22:57;4.80;;;2.50;;
61709;SDS011;47633;51.494;5.386;2023-03-01T05:25:24;4.70;;;2.25;;
61709;SDS011;47633;51.494;5.386;2023-03-01T05:27:50;3.90;;;2.03;;
61709;SDS011;47633;51.494;5.386;2023-03-01T05:30:16;5.03;;;2.55;;
61709;SDS011;47633;51.494;5.386;2023-03-01T05:32:43;5.68;;;2.22;;
61709;SDS011;47633;51.494;5.386;2023-03-01T05:35:14;4.97;;;2.10;;
61709;SDS011;47633;51.494;5.386;2023-03-01T05:37:45;4.22;;;2.00;;
61709;SDS011;47633;51.494;5.386;2023-03-01T05:40:14;4.00;;;2.00;;
61709;SDS011;47633;51.494;5.386;2023-03-01T05:42:51;7.25;;;2.40;;
61709;SDS011;47633;51.494;5.386;2023-03-01T05:45:19;3.65;;;1.58;;
61709;SDS011;47633;51.494;5.386;2023-03-01T05:47:45;4.70;;;1.77;;
61709;SDS011;47633;51.494;5.386;2023-03-01T05:50:15;4.57;;;1.70;;
61709;SDS011;47633;51.494;5.386;2023-03-01T05:52:50;3.58;;;1.67;;
61709;SDS011;47633;51.494;5.386;2023-03-01T05:55:47;5.35;;;1.90;;
61709;SDS011;47633;51.494;5.386;2023-03-01T05:58:15;3.55;;;1.52;;
61709;SDS011;47633;51.494;5.386;2023-03-01T06:00:43;2.97;;;1.58;;
61709;SDS011;47633;51.494;5.386;2023-03-01T06:03:10;3.80;;;1.70;;
61709;SDS011;47633;51.494;5.386;2023-03-01T06:05:37;4.20;;;1.73;;
61709;SDS011;47633;51.494;5.386;2023-03-01T06:08:04;4.63;;;1.85;;
61709;SDS011;47633;51.494;5.386;2023-03-01T06:10:29;5.25;;;2.10;;
61709;SDS011;47633;51.494;5.386;2023-03-01T06:12:55;4.88;;;1.98;;
61709;SDS011;47633;51.494;5.386;2023-03-01T06:15:21;4.57;;;1.60;;
61709;SDS011;47633;51.494;5.386;2023-03-01T06:17:47;4.30;;;1.80;;
61709;SDS011;47633;51.494;5.386;2023-03-01T06:20:14;5.32;;;1.85;;
61709;SDS011;47633;51.494;5.386;2023-03-01T06:22:44;3.53;;;1.70;;
61709;SDS011;47633;51.494;5.386;2023-03-01T06:25:12;3.85;;;1.55;;
61709;SDS011;47633;51.494;5.386;2023-03-01T06:27:38;3.70;;;1.70;;
61709;SDS011;47633;51.494;5.386;2023-03-01T06:30:03;3.67;;;1.58;;
61709;SDS011;47633;51.494;5.386;2023-03-01T06:32:29;3.38;;;1.58;;
61709;SDS011;47633;51.494;5.386;2023-03-01T06:34:55;4.07;;;1.80;;
61709;SDS011;47633;51.494;5.386;2023-03-01T06:37:21;4.72;;;1.67;;
61709;SDS011;47633;51.494;5.386;2023-03-01T06:39:46;4.45;;;1.75;;
61709;SDS011;47633;51.494;5.386;2023-03-01T06:42:11;4.50;;;1.73;;
61709;SDS011;47633;51.494;5.386;2023-03-01T06:44:37;4.20;;;1.77;;
61709;SDS011;47633;51.494;5.386;2023-03-01T06:47:03;4.60;;;2.00;;
61709;SDS011;47633;51.494;5.386;2023-03-01T06:49:29;3.90;;;1.88;;
61709;SDS011;47633;51.494;5.386;2023-03-01T06:51:55;3.83;;;1.83;;
61709;SDS011;47633;51.494;5.386;2023-03-01T06:54:20;4.57;;;1.90;;
61709;SDS011;47633;51.494;5.386;2023-03-01T06:56:47;3.90;;;1.80;;
61709;SDS011;47633;51.494;5.386;2023-03-01T06:59:13;4.63;;;1.90;;
61709;SDS011;47633;51.494;5.386;2023-03-01T07:01:39;3.50;;;1.70;;
61709;SDS011;47633;51.494;5.386;2023-03-01T07:04:04;3.85;;;1.60;;
61709;SDS011;47633;51.494;5.386;2023-03-01T07:06:30;3.95;;;1.63;;
61709;SDS011;47633;51.494;5.386;2023-03-01T07:08:55;3.78;;;1.85;;
61709;SDS011;47633;51.494;5.386;2023-03-01T07:11:20;5.03;;;1.95;;
61709;SDS011;47633;51.494;5.386;2023-03-01T07:13:45;3.03;;;1.42;;
61709;SDS011;47633;51.494;5.386;2023-03-01T07:16:11;3.47;;;1.70;;
61709;SDS011;47633;51.494;5.386;2023-03-01T07:18:36;4.38;;;1.85;;
61709;SDS011;47633;51.494;5.386;2023-03-01T07:21:06;4.10;;;1.98;;
61709;SDS011;47633;51.494;5.386;2023-03-01T07:23:32;4.95;;;1.95;;
61709;SDS011;47633;51.494;5.386;2023-03-01T07:25:58;5.20;;;2.08;;
61709;SDS011;47633;51.494;5.386;2023-03-01T07:28:23;4.72;;;1.73;;
61709;SDS011;47633;51.494;5.386;2023-03-01T07:30:49;4.90;;;2.20;;
61709;SDS011;47633;51.494;5.386;2023-03-01T07:33:14;5.00;;;1.92;;
61709;SDS011;47633;51.494;5.386;2023-03-01T07:35:40;4.28;;;2.10;;
61709;SDS011;47633;51.494;5.386;2023-03-01T07:38:05;14.43;;;2.63;;
61709;SDS011;47633;51.494;5.386;2023-03-01T07:40:30;4.47;;;2.00;;
61709;SDS011;47633;51.494;5.386;2023-03-01T07:42:56;6.63;;;2.20;;
61709;SDS011;47633;51.494;5.386;2023-03-01T07:45:22;7.32;;;2.15;;
61709;SDS011;47633;51.494;5.386;2023-03-01T07:47:49;4.57;;;2.00;;
61709;SDS011;47633;51.494;5.386;2023-03-01T07:50:16;5.78;;;1.98;;
61709;SDS011;47633;51.494;5.386;2023-03-01T07:52:41;6.22;;;2.22;;
61709;SDS011;47633;51.494;5.386;2023-03-01T07:55:06;4.35;;;1.88;;
61709;SDS011;47633;51.494;5.386;2023-03-01T07:57:32;5.90;;;2.03;;
61709;SDS011;47633;51.494;5.386;2023-03-01T07:59:57;6.45;;;2.20;;
61709;SDS011;47633;51.494;5.386;2023-03-01T08:02:23;6.43;;;2.00;;
61709;SDS011;47633;51.494;5.386;2023-03-01T08:04:48;7.28;;;2.15;;
61709;SDS011;47633;51.494;5.386;2023-03-01T08:07:13;4.28;;;1.92;;
61709;SDS011;47633;51.494;5.386;2023-03-01T08:09:38;4.70;;;2.08;;
61709;SDS011;47633;51.494;5.386;2023-03-01T08:12:04;4.35;;;2.20;;
61709;SDS011;47633;51.494;5.386;2023-03-01T08:14:31;4.40;;;2.00;;
61709;SDS011;47633;51.494;5.386;2023-03-01T08:16:56;5.35;;;1.85;;
61709;SDS011;47633;51.494;5.386;2023-03-01T08:19:35;4.55;;;1.60;;
61709;SDS011;47633;51.494;5.386;2023-03-01T08:22:01;4.70;;;2.05;;
61709;SDS011;47633;51.494;5.386;2023-03-01T08:24:27;4.95;;;2.03;;
61709;SDS011;47633;51.494;5.386;2023-03-01T08:26:53;6.70;;;2.00;;
61709;SDS011;47633;51.494;5.386;2023-03-01T08:29:19;4.63;;;1.90;;
61709;SDS011;47633;51.494;5.386;2023-03-01T08:31:44;4.85;;;2.10;;
61709;SDS011;47633;51.494;5.386;2023-03-01T08:34:12;6.35;;;1.90;;
61709;SDS011;47633;51.494;5.386;2023-03-01T08:36:41;6.30;;;1.90;;
61709;SDS011;47633;51.494;5.386;2023-03-01T08:39:08;6.70;;;1.85;;
61709;SDS011;47633;51.494;5.386;2023-03-01T08:41:35;4.25;;;1.83;;
61709;SDS011;47633;51.494;5.386;2023-03-01T08:44:01;4.78;;;1.88;;
61709;SDS011;47633;51.494;5.386;2023-03-01T08:46:27;5.75;;;1.95;;
61709;SDS011;47633;51.494;5.386;2023-03-01T08:48:54;6.22;;;2.10;;
61709;SDS011;47633;51.494;5.386;2023-03-01T08:51:19;5.53;;;1.85;;
61709;SDS011;47633;51.494;5.386;2023-03-01T08:53:46;4.65;;;1.73;;
61709;SDS011;47633;51.494;5.386;2023-03-01T08:56:12;6.65;;;1.90;;
61709;SDS011;47633;51.494;5.386;2023-03-01T08:58:37;4.80;;;1.90;;
61709;SDS011;47633;51.494;5.386;2023-03-01T09:01:11;4.80;;;1.88;;
61709;SDS011;47633;51.494;5.386;2023-03-01T09:03:38;5.53;;;1.98;;
61709;SDS011;47633;51.494;5.386;2023-03-01T09:06:04;3.80;;;1.73;;
61709;SDS011;47633;51.494;5.386;2023-03-01T09:08:34;5.15;;;2.60;;
61709;SDS011;47633;51.494;5.386;2023-03-01T09:11:03;5.10;;;2.10;;
61709;SDS011;47633;51.494;5.386;2023-03-01T09:13:30;6.55;;;2.15;;
61709;SDS011;47633;51.494;5.386;2023-03-01T09:15:58;6.03;;;1.88;;
61709;SDS011;47633;51.494;5.386;2023-03-01T09:18:35;4.95;;;1.70;;
61709;SDS011;47633;51.494;5.386;2023-03-01T09:21:05;4.82;;;1.92;;
61709;SDS011;47633;51.494;5.386;2023-03-01T09:26:08;4.03;;;1.70;;
61709;SDS011;47633;51.494;5.386;2023-03-01T09:28:36;4.20;;;1.80;;
61709;SDS011;47633;51.494;5.386;2023-03-01T09:31:02;5.55;;;1.90;;
61709;SDS011;47633;51.494;5.386;2023-03-01T09:33:28;5.90;;;1.80;;
61709;SDS011;47633;51.494;5.386;2023-03-01T09:35:58;5.78;;;2.20;;
61709;SDS011;47633;51.494;5.386;2023-03-01T09:38:25;4.00;;;1.63;;
61709;SDS011;47633;51.494;5.386;2023-03-01T09:40:51;5.00;;;1.90;;
61709;SDS011;47633;51.494;5.386;2023-03-01T09:43:59;7.00;;;1.90;;
61709;SDS011;47633;51.494;5.386;2023-03-01T09:46:32;4.65;;;1.73;;
61709;SDS011;47633;51.494;5.386;2023-03-01T09:49:09;4.55;;;1.92;;
61709;SDS011;47633;51.494;5.386;2023-03-01T09:51:39;4.57;;;1.63;;
61709;SDS011;47633;51.494;5.386;2023-03-01T09:54:05;5.25;;;1.70;;
61709;SDS011;47633;51.494;5.386;2023-03-01T09:56:34;3.85;;;1.60;;
61709;SDS011;47633;51.494;5.386;2023-03-01T10:01:40;3.58;;;1.67;;
61709;SDS011;47633;51.494;5.386;2023-03-01T10:07:13;5.80;;;1.70;;
61709;SDS011;47633;51.494;5.386;2023-03-01T10:09:47;4.45;;;1.60;;
61709;SDS011;47633;51.494;5.386;2023-03-01T10:12:14;5.57;;;1.83;;
61709;SDS011;47633;51.494;5.386;2023-03-01T10:22:46;5.05;;;1.80;;
61709;SDS011;47633;51.494;5.386;2023-03-01T10:25:15;5.40;;;2.00;;
61709;SDS011;47633;51.494;5.386;2023-03-01T10:27:51;6.05;;;2.17;;
61709;SDS011;47633;51.494;5.386;2023-03-01T10:30:37;5.78;;;2.13;;
61709;SDS011;47633;51.494;5.386;2023-03-01T10:33:17;4.95;;;2.10;;
61709;SDS011;47633;51.494;5.386;2023-03-01T10:35:46;4.57;;;1.98;;
61709;SDS011;47633;51.494;5.386;2023-03-01T10:38:12;6.18;;;2.03;;
61709;SDS011;47633;51.494;5.386;2023-03-01T10:43:47;5.40;;;1.90;;
61709;SDS011;47633;51.494;5.386;2023-03-01T10:49:07;5.07;;;2.13;;
61709;SDS011;47633;51.494;5.386;2023-03-01T10:51:39;6.10;;;1.90;;
61709;SDS011;47633;51.494;5.386;2023-03-01T10:54:14;4.80;;;1.92;;
61709;SDS011;47633;51.494;5.386;2023-03-01T10:56:46;4.38;;;1.98;;
61709;SDS011;47633;51.494;5.386;2023-03-01T10:59:22;4.55;;;1.80;;
61709;SDS011;47633;51.494;5.386;2023-03-01T11:02:01;4.20;;;1.90;;
61709;SDS011;47633;51.494;5.386;2023-03-01T11:04:29;5.90;;;1.80;;
61709;SDS011;47633;51.494;5.386;2023-03-01T11:06:58;4.50;;;1.85;;
61709;SDS011;47633;51.494;5.386;2023-03-01T11:09:25;3.75;;;1.77;;
61709;SDS011;47633;51.494;5.386;2023-03-01T11:11:55;4.57;;;1.88;;
61709;SDS011;47633;51.494;5.386;2023-03-01T11:14:22;7.32;;;1.90;;
61709;SDS011;47633;51.494;5.386;2023-03-01T11:16:57;5.63;;;2.20;;
61709;SDS011;47633;51.494;5.386;2023-03-01T11:19:24;5.05;;;2.05;;
61709;SDS011;47633;51.494;5.386;2023-03-01T11:21:55;5.18;;;2.10;;
61709;SDS011;47633;51.494;5.386;2023-03-01T11:29:55;9.32;;;2.22;;
61709;SDS011;47633;51.494;5.386;2023-03-01T11:32:26;5.00;;;2.20;;
61709;SDS011;47633;51.494;5.386;2023-03-01T11:34:58;4.43;;;2.10;;
61709;SDS011;47633;51.494;5.386;2023-03-01T11:37:32;6.72;;;1.60;;
61709;SDS011;47633;51.494;5.386;2023-03-01T11:40:05;5.85;;;1.92;;
61709;SDS011;47633;51.494;5.386;2023-03-01T11:42:40;5.80;;;2.20;;
61709;SDS011;47633;51.494;5.386;2023-03-01T11:45:11;4.53;;;1.77;;
61709;SDS011;47633;51.494;5.386;2023-03-01T11:47:44;6.45;;;2.40;;
61709;SDS011;47633;51.494;5.386;2023-03-01T11:50:35;5.53;;;1.95;;
61709;SDS011;47633;51.494;5.386;2023-03-01T12:04:36;4.93;;;1.85;;
61709;SDS011;47633;51.494;5.386;2023-03-01T12:10:47;5.97;;;2.38;;
61709;SDS011;47633;51.494;5.386;2023-03-01T12:16:09;5.05;;;1.70;;
61709;SDS011;47633;51.494;5.386;2023-03-01T12:21:30;4.60;;;2.17;;
61709;SDS011;47633;51.494;5.386;2023-03-01T12:29:26;6.90;;;1.98;;
61709;SDS011;47633;51.494;5.386;2023-03-01T12:32:15;5.30;;;1.70;;
61709;SDS011;47633;51.494;5.386;2023-03-01T12:51:20;4.00;;;1.77;;
61709;SDS011;47633;51.494;5.386;2023-03-01T12:53:50;6.78;;;2.05;;
61709;SDS011;47633;51.494;5.386;2023-03-01T12:56:19;3.92;;;2.10;;
61709;SDS011;47633;51.494;5.386;2023-03-01T13:02:10;5.93;;;2.60;;
61709;SDS011;47633;51.494;5.386;2023-03-01T13:04:55;6.05;;;2.63;;
61709;SDS011;47633;51.494;5.386;2023-03-01T13:07:38;5.90;;;2.65;;
61709;SDS011;47633;51.494;5.386;2023-03-01T13:17:51;7.28;;;2.83;;
61709;SDS011;47633;51.494;5.386;2023-03-01T13:20:18;6.28;;;3.03;;
61709;SDS011;47633;51.494;5.386;2023-03-01T13:22:46;6.53;;;2.80;;
61709;SDS011;47633;51.494;5.386;2023-03-01T13:27:45;5.93;;;2.92;;
61709;SDS011;47633;51.494;5.386;2023-03-01T13:35:59;6.97;;;3.17;;
61709;SDS011;47633;51.494;5.386;2023-03-01T13:41:47;7.47;;;3.63;;
61709;SDS011;47633;51.494;5.386;2023-03-01T13:49:55;6.82;;;3.72;;
61709;SDS011;47633;51.494;5.386;2023-03-01T13:54:54;8.20;;;4.45;;
61709;SDS011;47633;51.494;5.386;2023-03-01T13:57:22;6.95;;;3.97;;
61709;SDS011;47633;51.494;5.386;2023-03-01T13:59:53;6.72;;;4.13;;
61709;SDS011;47633;51.494;5.386;2023-03-01T14:02:18;8.93;;;4.40;;
61709;SDS011;47633;51.494;5.386;2023-03-01T14:04:43;6.75;;;4.40;;
61709;SDS011;47633;51.494;5.386;2023-03-01T14:07:21;9.07;;;5.00;;
61709;SDS011;47633;51.494;5.386;2023-03-01T14:09:52;8.85;;;5.28;;
61709;SDS011;47633;51.494;5.386;2023-03-01T14:17:52;7.28;;;4.80;;
61709;SDS011;47633;51.494;5.386;2023-03-01T14:20:42;10.43;;;5.40;;
61709;SDS011;47633;51.494;5.386;2023-03-01T14:23:13;7.03;;;4.88;;
61709;SDS011;47633;51.494;5.386;2023-03-01T14:25:46;7.35;;;4.60;;
61709;SDS011;47633;51.494;5.386;2023-03-01T14:28:18;8.43;;;4.50;;
61709;SDS011;47633;51.494;5.386;2023-03-01T14:30:50;5.90;;;4.18;;
61709;SDS011;47633;51.494;5.386;2023-03-01T14:33:26;6.93;;;4.57;;
61709;SDS011;47633;51.494;5.386;2023-03-01T14:36:01;7.72;;;4.70;;
61709;SDS011;47633;51.494;5.386;2023-03-01T14:38:34;7.75;;;4.20;;
61709;SDS011;47633;51.494;5.386;2023-03-01T14:41:06;6.60;;;3.85;;
61709;SDS011;47633;51.494;5.386;2023-03-01T14:44:23;5.63;;;3.78;;
61709;SDS011;47633;51.494;5.386;2023-03-01T14:46:38;6.13;;;3.60;;
61709;SDS011;47633;51.494;5.386;2023-03-01T14:49:21;5.35;;;3.35;;
61709;SDS011;47633;51.494;5.386;2023-03-01T14:52:02;5.35;;;3.47;;
61709;SDS011;47633;51.494;5.386;2023-03-01T14:54:49;6.25;;;3.50;;
61709;SDS011;47633;51.494;5.386;2023-03-01T14:57:21;6.07;;;3.15;;
61709;SDS011;47633;51.494;5.386;2023-03-01T14:59:48;5.65;;;3.60;;
61709;SDS011;47633;51.494;5.386;2023-03-01T15:02:16;5.53;;;3.30;;
61709;SDS011;47633;51.494;5.386;2023-03-01T15:05:01;5.53;;;2.90;;
61709;SDS011;47633;51.494;5.386;2023-03-01T15:07:30;5.03;;;2.92;;
61709;SDS011;47633;51.494;5.386;2023-03-01T15:09:59;4.82;;;2.60;;
61709;SDS011;47633;51.494;5.386;2023-03-01T15:12:33;5.15;;;2.78;;
61709;SDS011;47633;51.494;5.386;2023-03-01T15:15:00;6.57;;;3.03;;
61709;SDS011;47633;51.494;5.386;2023-03-01T15:20:00;4.90;;;2.80;;
61709;SDS011;47633;51.494;5.386;2023-03-01T15:22:27;5.90;;;2.65;;
61709;SDS011;47633;51.494;5.386;2023-03-01T15:24:52;5.28;;;2.42;;
61709;SDS011;47633;51.494;5.386;2023-03-01T15:27:20;5.22;;;2.70;;
61709;SDS011;47633;51.494;5.386;2023-03-01T15:29:52;8.20;;;2.88;;
61709;SDS011;47633;51.494;5.386;2023-03-01T15:32:31;5.47;;;2.55;;
61709;SDS011;47633;51.494;5.386;2023-03-01T15:34:58;7.38;;;2.42;;
61709;SDS011;47633;51.494;5.386;2023-03-01T15:37:44;9.30;;;2.60;;
61709;SDS011;47633;51.494;5.386;2023-03-01T15:40:26;5.05;;;2.58;;
61709;SDS011;47633;51.494;5.386;2023-03-01T15:42:57;5.00;;;2.53;;
61709;SDS011;47633;51.494;5.386;2023-03-01T15:45:24;4.82;;;2.20;;
61709;SDS011;47633;51.494;5.386;2023-03-01T15:47:55;4.88;;;2.25;;
61709;SDS011;47633;51.494;5.386;2023-03-01T15:52:57;5.82;;;2.17;;
61709;SDS011;47633;51.494;5.386;2023-03-01T15:55:25;5.03;;;2.13;;
61709;SDS011;47633;51.494;5.386;2023-03-01T15:58:06;4.60;;;2.20;;
61709;SDS011;47633;51.494;5.386;2023-03-01T16:00:37;4.82;;;2.30;;
61709;SDS011;47633;51.494;5.386;2023-03-01T16:03:03;6.57;;;2.95;;
61709;SDS011;47633;51.494;5.386;2023-03-01T16:05:30;6.90;;;3.10;;
61709;SDS011;47633;51.494;5.386;2023-03-01T16:07:59;5.30;;;2.78;;
61709;SDS011;47633;51.494;5.386;2023-03-01T16:10:25;6.15;;;3.13;;
61709;SDS011;47633;51.494;5.386;2023-03-01T16:12:51;5.72;;;2.95;;
61709;SDS011;47633;51.494;5.386;2023-03-01T16:15:21;5.20;;;3.03;;
61709;SDS011;47633;51.494;5.386;2023-03-01T16:17:49;6.13;;;2.90;;
61709;SDS011;47633;51.494;5.386;2023-03-01T16:20:14;5.93;;;3.17;;
61709;SDS011;47633;51.494;5.386;2023-03-01T16:22:43;5.95;;;3.10;;
61709;SDS011;47633;51.494;5.386;2023-03-01T16:25:10;6.55;;;2.95;;
61709;SDS011;47633;51.494;5.386;2023-03-01T16:27:37;6.25;;;2.70;;
61709;SDS011;47633;51.494;5.386;2023-03-01T16:30:03;5.60;;;2.63;;
61709;SDS011;47633;51.494;5.386;2023-03-01T16:32:30;5.65;;;2.42;;
61709;SDS011;47633;51.494;5.386;2023-03-01T16:34:55;6.32;;;2.58;;
61709;SDS011;47633;51.494;5.386;2023-03-01T16:37:20;5.13;;;2.50;;
61709;SDS011;47633;51.494;5.386;2023-03-01T16:39:46;5.35;;;2.58;;
61709;SDS011;47633;51.494;5.386;2023-03-01T16:42:13;4.90;;;2.92;;
61709;SDS011;47633;51.494;5.386;2023-03-01T16:44:39;7.00;;;2.80;;
61709;SDS011;47633;51.494;5.386;2023-03-01T16:47:04;5.28;;;2.50;;
61709;SDS011;47633;51.494;5.386;2023-03-01T16:49:30;4.90;;;2.80;;
61709;SDS011;47633;51.494;5.386;2023-03-01T16:51:55;5.65;;;2.85;;
61709;SDS011;47633;51.494;5.386;2023-03-01T16:54:20;5.53;;;2.70;;
61709;SDS011;47633;51.494;5.386;2023-03-01T16:56:45;6.82;;;2.97;;